createdAt,value
2018-06-16T00:01:15.229Z,91512.05
2018-06-16T00:03:49.073Z,91513.26
2018-06-16T00:06:23.160Z,91501.42
2018-06-16T00:08:57.179Z,91505.38
2018-06-16T00:11:31.191Z,91505.23
2018-06-16T00:14:05.071Z,91506.74
2018-06-16T00:16:39.212Z,91513.26
2018-06-16T00:19:13.141Z,91516.56
2018-06-16T00:21:47.402Z,91512.00
2018-06-16T00:24:21.398Z,91508.24
2018-06-16T00:26:55.452Z,91508.48
2018-06-16T00:29:29.344Z,91506.93
2018-06-16T00:32:03.500Z,91504.33
2018-06-16T00:34:37.505Z,91502.53
2018-06-16T00:37:17.008Z,91501.43
2018-06-16T00:39:51.031Z,91495.92
2018-06-16T00:42:25.079Z,91503.39
2018-06-16T00:44:58.947Z,91506.23
2018-06-16T00:47:32.975Z,91510.59
2018-06-16T00:50:06.921Z,91501.68
2018-06-16T00:52:40.957Z,91496.02
2018-06-16T00:55:14.915Z,91496.41
2018-06-16T00:57:50.110Z,91491.20
2018-06-16T01:00:24.058Z,91496.30
2018-06-16T01:02:58.106Z,91501.09
2018-06-16T01:05:32.138Z,91497.50
2018-06-16T01:08:06.265Z,91502.02
2018-06-16T01:10:40.231Z,91510.08
2018-06-16T01:13:14.437Z,91506.78
2018-06-16T01:15:48.412Z,91510.55
2018-06-16T01:18:22.679Z,91503.48
2018-06-16T01:20:56.709Z,91500.45
2018-06-16T01:23:31.083Z,91505.41
2018-06-16T01:26:05.031Z,91518.27
2018-06-16T01:28:38.943Z,91510.70
2018-06-16T01:31:13.900Z,91517.52
2018-06-16T01:33:47.959Z,91514.08
2018-06-16T01:36:22.018Z,91511.05
2018-06-16T01:38:56.205Z,91512.60
2018-06-16T01:41:30.111Z,91513.09
2018-06-16T01:44:04.299Z,91518.67
2018-06-16T01:46:38.246Z,91520.99
2018-06-16T01:49:12.292Z,91514.35
2018-06-16T01:51:46.251Z,91518.19
2018-06-16T01:54:20.448Z,91516.67
2018-06-16T01:56:54.550Z,91510.23
2018-06-16T01:59:28.526Z,91513.20
2018-06-16T02:02:02.527Z,91512.52
2018-06-16T02:04:36.518Z,91512.35
2018-06-16T02:07:10.630Z,91507.21
2018-06-16T02:09:44.772Z,91513.03
2018-06-16T02:12:18.747Z,91512.44
2018-06-16T02:14:52.804Z,91515.88
2018-06-16T02:17:26.745Z,91519.30
2018-06-16T02:20:01.121Z,91513.73
2018-06-16T02:22:35.024Z,91509.44
2018-06-16T02:25:09.068Z,91509.70
2018-06-16T02:27:43.152Z,91511.48
2018-06-16T02:30:17.187Z,91506.07
2018-06-16T02:32:51.181Z,91511.20
2018-06-16T02:35:25.235Z,91509.35
2018-06-16T02:37:59.212Z,91511.07
2018-06-16T02:40:33.274Z,91511.16
2018-06-16T02:43:07.179Z,91510.83
2018-06-16T02:45:41.335Z,91509.69
2018-06-16T02:48:15.267Z,91515.73
2018-06-16T02:50:49.368Z,91514.12
2018-06-16T02:53:23.290Z,91514.95
2018-06-16T02:55:57.344Z,91516.98
2018-06-16T02:58:31.439Z,91508.72
2018-06-16T03:01:05.575Z,91516.22
2018-06-16T03:03:39.697Z,91515.11
2018-06-16T03:06:13.665Z,91520.66
2018-06-16T03:08:47.672Z,91525.66
2018-06-16T03:11:21.768Z,91532.47
2018-06-16T03:13:55.591Z,91531.92
2018-06-16T03:16:29.755Z,91526.98
2018-06-16T03:19:03.859Z,91529.44
2018-06-16T03:21:38.358Z,91526.59
2018-06-16T03:24:12.269Z,91516.52
2018-06-16T03:26:46.756Z,91516.92
2018-06-16T03:29:20.892Z,91510.16
2018-06-16T03:31:54.914Z,91520.15
2018-06-16T03:34:29.488Z,91518.16
2018-06-16T03:37:03.487Z,91515.33
2018-06-16T03:39:37.450Z,91515.53
2018-06-16T03:42:11.607Z,91516.00
2018-06-16T03:44:45.635Z,91512.45
2018-06-16T03:47:19.541Z,91513.02
2018-06-16T03:49:53.580Z,91509.52
2018-06-16T03:52:27.710Z,91510.75
2018-06-16T03:55:01.769Z,91511.53
2018-06-16T03:57:35.922Z,91507.52
2018-06-16T04:00:09.911Z,91513.08
2018-06-16T04:02:44.013Z,91510.46
2018-06-16T04:05:17.992Z,91511.26
2018-06-16T04:07:55.048Z,91513.77
2018-06-16T04:10:28.962Z,91521.09
2018-06-16T04:13:03.041Z,91512.22
2018-06-16T04:15:37.200Z,91513.77
2018-06-16T04:18:11.217Z,91512.50
2018-06-16T04:20:45.243Z,91517.36
2018-06-16T04:23:19.347Z,91515.11
2018-06-16T04:25:53.287Z,91512.59
2018-06-16T04:28:27.603Z,91508.88
2018-06-16T04:31:01.587Z,91515.98
2018-06-16T04:33:35.476Z,91520.67
2018-06-16T04:36:09.463Z,91520.90
2018-06-16T04:38:43.475Z,91518.31
2018-06-16T04:41:17.558Z,91522.80
2018-06-16T04:43:52.403Z,91527.66
2018-06-16T04:46:26.391Z,91522.70
2018-06-16T04:49:00.357Z,91527.50
2018-06-16T04:51:34.235Z,91523.37
2018-06-16T04:54:08.375Z,91524.30
2018-06-16T04:56:42.381Z,91528.06
2018-06-16T04:59:16.608Z,91535.11
2018-06-16T05:01:50.780Z,91532.53
2018-06-16T05:04:24.715Z,91542.95
2018-06-16T05:06:58.695Z,91542.52
2018-06-16T05:09:32.705Z,91541.96
2018-06-16T05:12:06.728Z,91543.56
2018-06-16T05:14:40.850Z,91551.39
2018-06-16T05:17:14.852Z,91551.03
2018-06-16T05:19:49.737Z,91550.50
2018-06-16T05:22:24.039Z,91554.94
2018-06-16T05:24:58.351Z,91552.83
2018-06-16T05:27:32.573Z,91554.98
2018-06-16T05:30:06.959Z,91554.88
2018-06-16T05:32:41.697Z,91560.03
2018-06-16T05:35:15.913Z,91566.52
2018-06-16T05:40:44.582Z,91570.23
2018-06-16T05:43:18.779Z,91569.99
2018-06-16T05:45:53.263Z,91571.02
2018-06-16T05:48:27.628Z,91577.76
2018-06-16T05:51:01.779Z,91572.94
2018-06-16T05:53:35.812Z,91573.16
2018-06-16T05:56:10.207Z,91573.73
2018-06-16T05:58:44.291Z,91571.02
2018-06-16T06:01:18.436Z,91556.75
2018-06-16T06:03:54.030Z,91554.85
2018-06-16T06:06:28.248Z,91551.42
2018-06-16T06:09:02.997Z,91551.75
2018-06-16T06:11:37.012Z,91549.80
2018-06-16T06:14:11.127Z,91547.92
2018-06-16T06:16:46.270Z,91545.73
2018-06-16T06:19:21.119Z,91547.62
2018-06-16T06:21:55.151Z,91547.03
2018-06-16T06:24:29.083Z,91552.04
2018-06-16T06:27:03.277Z,91551.19
2018-06-16T06:29:37.339Z,91559.50
2018-06-16T06:32:11.405Z,91562.41
2018-06-16T06:34:45.467Z,91555.05
2018-06-16T06:37:19.442Z,91559.84
2018-06-16T06:39:53.922Z,91564.16
2018-06-16T06:42:28.087Z,91558.73
2018-06-16T06:45:02.067Z,91562.34
2018-06-16T06:47:37.526Z,91559.77
2018-06-16T06:50:11.667Z,91564.76
2018-06-16T06:52:45.691Z,91556.05
2018-06-16T06:55:19.611Z,91560.84
2018-06-16T06:57:54.229Z,91563.16
2018-06-16T07:00:28.086Z,91558.92
2018-06-16T07:03:02.231Z,91552.62
2018-06-16T07:05:36.374Z,91547.53
2018-06-16T07:08:10.687Z,91550.29
2018-06-16T07:10:44.787Z,91550.44
2018-06-16T07:13:18.667Z,91546.28
2018-06-16T07:15:52.563Z,91548.41
2018-06-16T07:18:26.711Z,91548.94
2018-06-16T07:21:00.662Z,91545.39
2018-06-16T07:23:35.037Z,91547.02
2018-06-16T07:26:09.000Z,91547.16
2018-06-16T07:28:43.104Z,91546.20
2018-06-16T07:31:17.069Z,91543.27
2018-06-16T07:33:51.220Z,91551.98
2018-06-16T07:36:25.488Z,91551.42
2018-06-16T07:38:59.615Z,91555.14
2018-06-16T07:41:33.597Z,91550.16
2018-06-16T07:44:07.616Z,91543.75
2018-06-16T07:46:41.470Z,91544.84
2018-06-16T07:49:15.532Z,91542.73
2018-06-16T07:51:49.615Z,91546.96
2018-06-16T07:54:23.612Z,91542.34
2018-06-16T07:56:57.457Z,91547.98
2018-06-16T07:59:31.466Z,91547.53
2018-06-16T08:02:05.474Z,91542.78
2018-06-16T08:04:41.323Z,91546.66
2018-06-16T08:07:15.291Z,91545.81
2018-06-16T08:09:49.443Z,91538.26
2018-06-16T08:12:23.419Z,91541.20
2018-06-16T08:14:57.504Z,91535.91
2018-06-16T08:17:31.438Z,91528.33
2018-06-16T08:20:05.637Z,91527.48
2018-06-16T08:22:39.724Z,91529.09
2018-06-16T08:25:13.678Z,91526.55
2018-06-16T08:27:47.615Z,91536.77
2018-06-16T08:30:21.718Z,91530.88
2018-06-16T08:32:55.682Z,91521.47
2018-06-16T08:35:30.041Z,91521.52
2018-06-16T08:38:03.963Z,91520.20
2018-06-16T08:40:37.850Z,91519.48
2018-06-16T08:43:11.844Z,91519.16
2018-06-16T08:45:45.942Z,91516.05
2018-06-16T08:48:19.899Z,91513.34
2018-06-16T08:50:54.119Z,91509.30
2018-06-16T08:53:28.089Z,91508.78
2018-06-16T08:56:01.986Z,91519.55
2018-06-16T08:58:36.000Z,91509.33
2018-06-16T09:02:34.482Z,91506.05
2018-06-16T09:05:08.520Z,91515.54
2018-06-16T09:07:42.978Z,91512.40
2018-06-16T09:10:17.075Z,91511.70
2018-06-16T09:12:51.070Z,91512.52
2018-06-16T09:15:24.915Z,91509.80
2018-06-16T09:17:58.984Z,91505.57
2018-06-16T09:20:32.948Z,91498.91
2018-06-16T09:23:07.095Z,91501.66
2018-06-16T09:25:41.079Z,91494.77
2018-06-16T09:28:15.153Z,91496.16
2018-06-16T09:30:49.079Z,91489.01
2018-06-16T09:33:23.120Z,91491.89
2018-06-16T09:35:57.052Z,91490.37
2018-06-16T09:38:31.272Z,91486.17
2018-06-16T09:41:05.314Z,91481.23
2018-06-16T09:43:39.437Z,91487.50
2018-06-16T09:46:13.294Z,91487.58
2018-06-16T09:48:47.371Z,91481.39
2018-06-16T09:51:21.397Z,91489.11
2018-06-16T09:53:55.599Z,91480.72
2018-06-16T09:56:29.642Z,91491.06
2018-06-16T09:59:03.703Z,91490.86
2018-06-16T10:01:37.812Z,91491.30
2018-06-16T10:04:11.819Z,91500.81
2018-06-16T10:06:45.754Z,91504.93
2018-06-16T10:09:19.803Z,91498.72
2018-06-16T10:11:53.685Z,91504.83
2018-06-16T10:14:27.839Z,91505.48
2018-06-16T10:17:01.912Z,91504.89
2018-06-16T10:19:35.972Z,91505.20
2018-06-16T10:22:10.092Z,91508.78
2018-06-16T10:24:44.476Z,91502.06
2018-06-16T10:27:18.559Z,91502.88
2018-06-16T10:29:52.505Z,91509.22
2018-06-16T10:32:26.564Z,91509.67
2018-06-16T10:35:00.568Z,91509.11
2018-06-16T10:37:34.626Z,91512.05
2018-06-16T10:40:08.787Z,91513.34
2018-06-16T10:42:42.880Z,91513.97
2018-06-16T10:45:16.871Z,91517.91
2018-06-16T10:47:50.901Z,91515.28
2018-06-16T10:50:24.984Z,91519.25
2018-06-16T10:52:58.943Z,91523.81
2018-06-16T10:55:33.051Z,91524.41
2018-06-16T10:58:06.955Z,91525.27
2018-06-16T11:00:40.959Z,91537.49
2018-06-16T11:03:14.885Z,91535.55
2018-06-16T11:05:48.978Z,91525.53
2018-06-16T11:08:23.025Z,91523.05
2018-06-16T11:10:57.132Z,91514.38
2018-06-16T11:13:31.104Z,91508.71
2018-06-16T11:16:05.382Z,91507.09
2018-06-16T11:18:44.427Z,91507.25
2018-06-16T11:21:18.422Z,91499.75
2018-06-16T11:23:52.385Z,91491.76
2018-06-16T11:26:26.556Z,91496.36
2018-06-16T11:29:00.471Z,91499.44
2018-06-16T11:31:34.588Z,91497.02
2018-06-16T11:34:08.619Z,91507.47
2018-06-16T11:36:42.771Z,91509.73
2018-06-16T11:39:16.779Z,91508.16
2018-06-16T11:41:44.713Z,91507.34
2018-06-16T11:44:12.553Z,91511.38
2018-06-16T11:46:40.378Z,91509.61
2018-06-16T11:49:08.239Z,91521.02
2018-06-16T11:51:36.079Z,91521.05
2018-06-16T11:54:03.934Z,91525.20
2018-06-16T11:56:32.033Z,91527.86
2018-06-16T11:58:59.883Z,91528.36
2018-06-16T12:01:27.742Z,91527.97
2018-06-16T12:03:55.666Z,91536.20
2018-06-16T12:06:23.502Z,91542.00
2018-06-16T12:08:51.386Z,91547.59
2018-06-16T12:11:19.268Z,91555.39
2018-06-16T12:13:47.100Z,91563.39
2018-06-16T12:16:15.017Z,91565.55
2018-06-16T12:18:42.905Z,91568.00
2018-06-16T12:21:10.730Z,91572.66
2018-06-16T12:23:38.580Z,91590.22
2018-06-16T12:26:06.532Z,91596.55
2018-06-16T12:28:34.411Z,91613.30
2018-06-16T12:31:02.251Z,91634.48
2018-06-16T12:33:30.216Z,91645.05
2018-06-16T12:35:58.152Z,91639.94
2018-06-16T12:38:25.988Z,91650.66
2018-06-16T12:40:53.920Z,91652.84
2018-06-16T12:43:21.774Z,91640.33
2018-06-16T12:45:50.250Z,91644.72
2018-06-16T12:48:18.175Z,91640.09
2018-06-16T12:50:46.043Z,91645.30
2018-06-16T12:53:13.893Z,91651.07
2018-06-16T12:55:41.767Z,91650.08
2018-06-16T12:58:09.598Z,91637.33
2018-06-16T13:00:37.445Z,91636.05
2018-06-16T13:03:05.316Z,91629.31
2018-06-16T13:05:33.143Z,91631.55
2018-06-16T13:08:01.001Z,91627.77
2018-06-16T13:10:28.995Z,91636.12
2018-06-16T13:12:56.844Z,91630.48
2018-06-16T13:15:24.691Z,91644.53
2018-06-16T13:17:52.592Z,91643.95
2018-06-16T13:20:20.444Z,91651.94
2018-06-16T13:22:48.293Z,91658.23
2018-06-16T13:25:16.179Z,91667.77
2018-06-16T13:27:44.006Z,91679.06
2018-06-16T13:30:11.824Z,91679.77
2018-06-16T13:32:39.792Z,91671.42
2018-06-16T13:35:07.660Z,91683.37
2018-06-16T13:37:35.599Z,91686.85
2018-06-16T13:40:03.561Z,91679.18
2018-06-16T13:42:31.408Z,91675.43
2018-06-16T13:44:59.420Z,91675.33
2018-06-16T13:47:27.287Z,91677.77
2018-06-16T13:49:55.117Z,91672.06
2018-06-16T13:52:22.997Z,91662.52
2018-06-16T13:54:51.051Z,91651.22
2018-06-16T13:57:18.898Z,91643.54
2018-06-16T13:59:46.754Z,91636.89
2018-06-16T14:02:14.779Z,91624.87
2018-06-16T14:04:42.617Z,91623.42
2018-06-16T14:07:10.540Z,91617.17
2018-06-16T14:09:38.411Z,91616.42
2018-06-16T14:12:06.264Z,91618.45
2018-06-16T14:14:34.117Z,91612.84
2018-06-16T14:17:02.095Z,91613.43
2018-06-16T14:19:30.033Z,91613.27
2018-06-16T14:21:58.075Z,91612.14
2018-06-16T14:24:26.044Z,91608.80
2018-06-16T14:26:53.930Z,91612.64
2018-06-16T14:29:21.913Z,91599.09
2018-06-16T14:31:51.076Z,91582.98
2018-06-16T14:34:18.927Z,91589.53
2018-06-16T14:36:46.784Z,91587.81
2018-06-16T14:39:15.198Z,91590.70
2018-06-16T14:41:43.085Z,91602.63
2018-06-16T14:44:10.972Z,91596.10
2018-06-16T14:46:38.875Z,91603.03
2018-06-16T14:49:07.918Z,91602.36
2018-06-16T14:51:35.908Z,91596.80
2018-06-16T14:54:03.996Z,91595.92
2018-06-16T14:56:31.977Z,91592.63
2018-06-16T14:59:00.574Z,91590.12
2018-06-16T15:01:28.555Z,91585.30
2018-06-16T15:03:58.150Z,91585.61
2018-06-16T15:06:26.121Z,91581.86
2018-06-16T15:08:54.791Z,91583.04
2018-06-16T15:11:22.827Z,91590.73
2018-06-16T15:13:57.186Z,91584.27
2018-06-16T15:16:27.625Z,91581.22
2018-06-16T15:18:55.457Z,91575.20
2018-06-16T15:21:23.596Z,91573.83
2018-06-16T15:23:51.701Z,91580.27
2018-06-16T15:26:19.571Z,91585.70
2018-06-16T15:28:47.538Z,91589.02
2018-06-16T15:31:15.392Z,91589.72
2018-06-16T15:33:44.418Z,91589.72
2018-06-16T15:36:12.562Z,91589.61
2018-06-16T15:38:40.728Z,91596.30
2018-06-16T15:41:09.986Z,91600.97
2018-06-16T15:43:38.632Z,91601.05
2018-06-16T15:46:06.548Z,91605.34
2018-06-16T15:48:35.174Z,91605.25
2018-06-16T15:51:04.394Z,91608.39
2018-06-16T15:53:32.656Z,91605.20
2018-06-16T15:56:00.489Z,91609.17
2018-06-16T15:58:28.407Z,91612.95
2018-06-16T16:00:56.265Z,91603.22
2018-06-16T16:03:24.196Z,91607.39
2018-06-16T16:05:52.378Z,91602.08
2018-06-16T16:08:20.155Z,91594.89
2018-06-16T16:10:48.115Z,91607.56
2018-06-16T16:13:16.332Z,91594.98
2018-06-16T16:15:44.708Z,91596.52
2018-06-16T16:18:13.787Z,91608.80
2018-06-16T16:20:41.688Z,91607.32
2018-06-16T16:23:09.787Z,91606.23
2018-06-16T16:25:37.621Z,91616.18
2018-06-16T16:28:05.696Z,91612.36
2018-06-16T16:30:33.815Z,91608.33
2018-06-16T16:33:01.913Z,91610.54
2018-06-16T16:35:29.821Z,91609.51
2018-06-16T16:37:57.654Z,91611.76
2018-06-16T16:40:25.814Z,91614.03
2018-06-16T16:42:53.901Z,91614.97
2018-06-16T16:45:21.833Z,91614.45
2018-06-16T16:47:49.934Z,91608.79
2018-06-16T16:50:18.048Z,91606.98
2018-06-16T16:52:45.939Z,91604.63
2018-06-16T16:55:14.026Z,91600.33
2018-06-16T16:57:41.916Z,91595.03
2018-06-16T17:00:11.197Z,91593.77
2018-06-16T17:02:39.391Z,91593.94
2018-06-16T17:05:07.494Z,91596.83
2018-06-16T17:07:35.492Z,91599.41
2018-06-16T17:10:03.838Z,91603.08
2018-06-16T17:12:31.871Z,91606.58
2018-06-16T17:15:00.093Z,91606.68
2018-06-16T17:17:28.009Z,91612.44
2018-06-16T17:19:55.874Z,91614.12
2018-06-16T17:22:23.889Z,91613.47
2018-06-16T17:24:52.259Z,91602.26
2018-06-16T17:27:20.201Z,91616.27
2018-06-16T17:29:48.401Z,91610.64
2018-06-16T17:32:16.259Z,91615.75
2018-06-16T17:34:44.217Z,91618.22
2018-06-16T17:37:12.077Z,91623.52
2018-06-16T17:39:39.923Z,91629.59
2018-06-16T17:42:07.819Z,91628.47
2018-06-16T17:44:35.884Z,91625.00
2018-06-16T17:47:03.767Z,91623.83
2018-06-16T17:49:31.692Z,91631.65
2018-06-16T17:51:59.651Z,91635.74
2018-06-16T17:54:27.644Z,91639.37
2018-06-16T17:56:55.596Z,91632.77
2018-06-16T17:59:23.487Z,91634.50
2018-06-16T18:01:51.392Z,91625.48
2018-06-16T18:04:19.296Z,91632.19
2018-06-16T18:06:47.156Z,91635.56
2018-06-16T18:09:15.204Z,91638.98
2018-06-16T18:11:43.082Z,91639.92
2018-06-16T18:14:10.915Z,91648.61
2018-06-16T18:16:38.868Z,91649.31
2018-06-16T18:19:06.905Z,91653.17
2018-06-16T18:21:35.861Z,91649.22
2018-06-16T18:24:04.435Z,91654.53
2018-06-16T18:26:32.326Z,91653.34
2018-06-16T18:29:00.803Z,91660.84
2018-06-16T18:31:28.645Z,91671.75
2018-06-16T18:33:56.551Z,91667.86
2018-06-16T18:36:24.738Z,91682.57
2018-06-16T18:45:56.099Z,91690.55
2018-06-16T18:48:23.947Z,91692.84
2018-06-16T18:50:52.328Z,91692.42
2018-06-16T18:53:20.227Z,91683.28
2018-06-16T18:55:50.970Z,91686.42
2018-06-16T18:58:19.320Z,91690.45
2018-06-16T19:00:48.176Z,91697.09
2018-06-16T19:03:16.021Z,91696.78
2018-06-16T19:05:43.954Z,91698.16
2018-06-16T19:10:55.927Z,91713.75
2018-06-16T19:13:24.017Z,91715.07
2018-06-16T19:15:52.109Z,91711.17
2018-06-16T19:18:19.994Z,91725.05
2018-06-16T19:20:48.010Z,91724.39
2018-06-16T19:23:15.951Z,91725.64
2018-06-16T19:25:43.775Z,91721.08
2018-06-16T19:28:12.080Z,91722.06
2018-06-16T19:30:39.954Z,91718.45
2018-06-16T19:33:07.788Z,91726.64
2018-06-16T19:35:38.292Z,91729.02
2018-06-16T19:38:06.246Z,91731.50
2018-06-16T19:40:34.104Z,91728.97
2018-06-16T19:43:02.288Z,91725.23
2018-06-16T19:45:30.165Z,91728.92
2018-06-16T19:47:58.314Z,91726.45
2018-06-16T19:50:26.272Z,91726.34
2018-06-16T19:52:54.131Z,91723.08
2018-06-16T19:55:22.006Z,91726.48
2018-06-16T19:57:51.541Z,91726.59
2018-06-16T20:00:25.626Z,91730.28
2018-06-16T20:02:59.842Z,91728.88
2018-06-16T20:05:34.032Z,91727.28
2018-06-16T20:08:08.146Z,91731.30
2018-06-16T20:10:42.519Z,91742.67
2018-06-16T20:13:16.519Z,91750.39
2018-06-16T20:15:50.427Z,91749.17
2018-06-16T20:18:24.540Z,91741.73
2018-06-16T20:20:58.505Z,91741.97
2018-06-16T20:23:32.515Z,91742.87
2018-06-16T20:26:06.454Z,91746.66
2018-06-16T20:28:40.462Z,91753.86
2018-06-16T20:31:14.392Z,91748.80
2018-06-16T20:33:48.544Z,91753.11
2018-06-16T20:36:22.646Z,91748.48
2018-06-16T20:38:56.603Z,91750.12
2018-06-16T20:41:30.675Z,91760.41
2018-06-16T20:44:04.799Z,91751.22
2018-06-16T20:53:34.620Z,91757.21
2018-06-16T20:56:08.601Z,91755.95
2018-06-16T20:58:42.649Z,91759.13
2018-06-16T21:01:16.701Z,91754.40
2018-06-16T21:03:50.743Z,91751.73
2018-06-16T21:06:24.637Z,91755.61
2018-06-16T21:08:58.656Z,91754.91
2018-06-16T21:11:32.681Z,91750.20
2018-06-16T21:14:06.775Z,91756.06
2018-06-16T21:16:40.803Z,91755.20
2018-06-16T21:19:14.823Z,91753.69
2018-06-16T21:21:48.786Z,91749.47
2018-06-16T21:24:22.756Z,91756.35
2018-06-16T21:26:56.791Z,91752.84
2018-06-16T21:29:30.787Z,91748.26
2018-06-16T21:32:05.673Z,91747.98
2018-06-16T21:34:40.112Z,91743.54
2018-06-16T21:37:14.447Z,91744.66
2018-06-16T21:39:48.566Z,91739.65
2018-06-16T21:42:22.753Z,91737.78
2018-06-16T21:44:58.327Z,91737.42
2018-06-16T21:47:40.367Z,91742.14
2018-06-16T21:50:17.444Z,91742.60
2018-06-16T21:52:51.420Z,91736.52
2018-06-16T21:55:27.559Z,91731.24
2018-06-16T21:58:01.711Z,91735.27
2018-06-16T22:00:41.020Z,91736.38
2018-06-16T22:03:15.031Z,91739.98
2018-06-16T22:05:49.033Z,91740.20
2018-06-16T22:08:30.977Z,91736.33
2018-06-16T22:11:05.035Z,91741.76
2018-06-16T22:13:38.978Z,91739.00
2018-06-16T22:16:13.016Z,91734.48
2018-06-16T22:18:46.975Z,91728.82
2018-06-16T22:21:20.893Z,91727.37
2018-06-16T22:23:55.150Z,91728.48
2018-06-16T22:26:29.170Z,91723.56
2018-06-16T22:29:03.128Z,91727.33
2018-06-16T22:31:37.139Z,91723.72
2018-06-16T22:34:11.067Z,91734.41
2018-06-16T22:36:45.165Z,91741.19
2018-06-16T22:39:19.292Z,91740.44
2018-06-16T22:41:53.365Z,91743.30
2018-06-16T22:44:27.270Z,91744.25
2018-06-16T22:47:01.370Z,91734.28
2018-06-16T22:49:35.327Z,91735.02
2018-06-16T22:52:09.672Z,91736.77
2018-06-16T22:54:43.607Z,91743.82
2018-06-16T22:57:17.812Z,91739.55
2018-06-16T22:59:51.805Z,91734.61
2018-06-16T23:02:25.869Z,91736.52
2018-06-16T23:04:59.942Z,91736.46
2018-06-16T23:07:33.938Z,91730.60
2018-06-16T23:10:07.882Z,91724.46
2018-06-16T23:12:41.894Z,91724.77
2018-06-16T23:15:15.994Z,91726.64
2018-06-16T23:17:49.924Z,91722.92
2018-06-16T23:20:24.007Z,91721.69
2018-06-16T23:22:57.986Z,91721.48
2018-06-16T23:25:31.904Z,91723.75
2018-06-16T23:28:06.000Z,91724.28
2018-06-16T23:30:39.950Z,91729.66
2018-06-16T23:33:13.982Z,91729.01
2018-06-16T23:35:48.016Z,91734.20
2018-06-16T23:38:22.070Z,91736.75
2018-06-16T23:40:55.970Z,91732.09
2018-06-16T23:43:30.065Z,91730.95
2018-06-16T23:46:04.109Z,91736.80
2018-06-16T23:48:38.205Z,91732.95
2018-06-16T23:51:12.113Z,91740.48
2018-06-16T23:53:46.094Z,91730.46
2018-06-16T23:56:20.060Z,91732.79
2018-06-16T23:58:54.269Z,91738.69
